Time;durP1;ratioP1;P1;durP2;ratioP2;P2;SDS_P1;SDS_P2;PMS_P1;PMS_P2;Temp;Humidity;BMP_temperature;BMP_pressure;BME280_temperature;BME280_humidity;BME280_pressure;Samples;Min_cycle;Max_cycle;Signal;HPM_P1;HPM_P2
2024/04/14 00:00:30;;;;;;;3.08;2.75;;;17.90;99.90;;;;;;4429987;26;20246;-58
2024/04/14 00:02:31;;;;;;;2.92;2.38;;;17.90;97.60;;;;;;4505445;26;20230;-58
2024/04/14 00:04:31;;;;;;;2.70;2.50;;;17.80;1.00;;;;;;4509762;26;20332;-58
2024/04/14 00:06:32;;;;;;;3.33;2.22;;;17.80;1.00;;;;;;4479244;26;20227;-58
2024/04/14 00:08:33;;;;;;;3.25;1.98;;;17.70;99.90;;;;;;4492218;26;20231;-58
2024/04/14 00:10:33;;;;;;;1.90;1.80;;;17.60;92.60;;;;;;4505393;26;20277;-59
2024/04/14 00:12:34;;;;;;;1.80;1.70;;;17.60;1.00;;;;;;4487344;26;20586;-58
2024/04/14 00:14:34;;;;;;;2.35;2.00;;;17.50;1.00;;;;;;4497806;26;20228;-58
2024/04/14 00:16:35;;;;;;;1.88;1.60;;;17.50;1.00;;;;;;4498596;26;20230;-58
2024/04/14 00:18:35;;;;;;;2.78;1.63;;;17.40;1.00;;;;;;4510528;26;20281;-58
2024/04/14 00:20:36;;;;;;;1.50;1.40;;;17.30;1.00;;;;;;4478878;26;20613;-58
2024/04/14 00:22:37;;;;;;;2.38;1.60;;;17.30;1.00;;;;;;4478859;26;21025;-58
2024/04/14 00:24:37;;;;;;;1.50;1.40;;;17.20;1.00;;;;;;4432527;26;20260;-58
2024/04/14 00:26:38;;;;;;;1.20;1.10;;;17.10;1.00;;;;;;4502695;26;20230;-58
2024/04/14 00:28:39;;;;;;;2.33;1.30;;;17.10;99.90;;;;;;4510303;26;20618;-58
2024/04/14 00:30:43;;;;;;;2.25;1.05;;;17.00;99.90;;;;;;4510406;26;20230;-58
2024/04/14 00:32:43;;;;;;;1.20;1.10;;;17.00;99.90;;;;;;4510840;26;20301;-57
2024/04/14 00:34:44;;;;;;;2.17;1.10;;;16.90;99.90;;;;;;4487177;26;20953;-59
2024/04/14 00:36:45;;;;;;;1.30;1.20;;;16.90;99.90;;;;;;4475296;26;20305;-58
2024/04/14 00:38:45;;;;;;;2.13;1.20;;;16.90;99.90;;;;;;4480319;26;20232;-58
2024/04/14 00:40:46;;;;;;;1.17;0.95;;;16.80;99.90;;;;;;4463632;26;21053;-58
2024/04/14 00:42:46;;;;;;;2.05;1.00;;;16.80;99.90;;;;;;4500699;26;20227;-58
2024/04/14 00:44:47;;;;;;;1.48;1.10;;;16.70;99.90;;;;;;4484984;26;20239;-58
2024/04/14 00:46:48;;;;;;;1.42;1.20;;;16.70;99.90;;;;;;4509779;26;20242;-58
2024/04/14 00:48:49;;;;;;;3.28;1.52;;;16.60;99.90;;;;;;4478715;26;20250;-59
2024/04/14 00:50:50;;;;;;;1.73;1.10;;;16.60;99.90;;;;;;4498176;26;20870;-59
2024/04/14 00:52:51;;;;;;;1.77;1.00;;;16.50;99.90;;;;;;4484933;26;20311;-59
2024/04/14 00:54:52;;;;;;;1.60;1.10;;;16.50;99.90;;;;;;4419751;26;20331;-59
2024/04/14 00:56:53;;;;;;;1.13;1.00;;;16.50;99.90;;;;;;4461595;26;20275;-59
2024/04/14 00:58:53;;;;;;;1.75;1.10;;;16.40;99.90;;;;;;4499120;26;20238;-59
2024/04/14 01:00:54;;;;;;;2.25;1.30;;;16.40;99.90;;;;;;4485642;26;20717;-59
2024/04/14 01:02:55;;;;;;;2.33;1.17;;;16.30;99.90;;;;;;4503559;26;20232;-59
2024/04/14 01:04:55;;;;;;;1.20;0.85;;;16.30;99.90;;;;;;4479474;26;20231;-59
2024/04/14 01:06:57;;;;;;;0.93;0.85;;;16.30;99.90;;;;;;4479900;26;20724;-58
2024/04/14 01:08:58;;;;;;;1.73;1.13;;;16.20;99.90;;;;;;4481111;26;20286;-58
2024/04/14 01:10:59;;;;;;;1.15;0.80;;;16.20;99.90;;;;;;4503263;26;20705;-58
2024/04/14 01:12:59;;;;;;;1.80;1.05;;;16.20;99.90;;;;;;4480324;26;20651;-57
2024/04/14 01:15:01;;;;;;;1.55;1.17;;;16.10;99.90;;;;;;4437745;26;20310;-58
2024/04/14 01:17:02;;;;;;;1.20;1.10;;;16.10;99.90;;;;;;4503886;26;20815;-57
2024/04/14 01:19:04;;;;;;;1.20;1.05;;;16.10;99.90;;;;;;4480222;26;20247;-57
2024/04/14 01:21:07;;;;;;;1.80;1.20;;;16.00;99.90;;;;;;4479972;26;20239;-57
2024/04/14 01:23:08;;;;;;;2.95;0.95;;;15.90;99.90;;;;;;4480056;26;20282;-59
2024/04/14 01:25:09;;;;;;;2.28;1.17;;;15.90;99.90;;;;;;4478952;26;20235;-57
2024/04/14 01:27:10;;;;;;;1.25;0.82;;;15.90;99.90;;;;;;4454474;26;20232;-57
2024/04/14 01:29:10;;;;;;;1.63;1.23;;;15.90;99.90;;;;;;4509456;26;20621;-58
2024/04/14 01:31:11;;;;;;;1.00;0.90;;;15.80;99.90;;;;;;4509469;26;20289;-58
2024/04/14 01:33:11;;;;;;;1.63;1.13;;;15.80;99.90;;;;;;4478120;26;20765;-57
2024/04/14 01:35:12;;;;;;;1.25;1.00;;;15.80;99.90;;;;;;4504165;26;20816;-57
2024/04/14 01:37:13;;;;;;;1.90;1.10;;;15.70;99.90;;;;;;4509511;26;20272;-57
2024/04/14 01:39:13;;;;;;;1.05;0.90;;;15.70;99.90;;;;;;4509451;26;20230;-57
2024/04/14 01:41:14;;;;;;;1.73;1.00;;;15.60;99.90;;;;;;4502333;26;20232;-57
2024/04/14 01:43:14;;;;;;;1.98;1.00;;;15.60;99.90;;;;;;4506540;26;20268;-57
2024/04/14 01:45:16;;;;;;;1.10;1.00;;;15.60;99.90;;;;;;4477074;26;20239;-57
2024/04/14 01:47:17;;;;;;;1.35;1.17;;;15.60;99.90;;;;;;4494462;26;20227;-57
2024/04/14 01:49:18;;;;;;;1.63;1.05;;;15.50;99.90;;;;;;4479415;26;20227;-57
2024/04/14 01:51:18;;;;;;;1.17;0.80;;;15.50;99.90;;;;;;4478569;26;20977;-57
2024/04/14 01:53:19;;;;;;;1.10;1.00;;;15.50;99.90;;;;;;4479677;26;20231;-57
2024/04/14 01:55:20;;;;;;;1.73;1.00;;;15.50;99.90;;;;;;4479093;26;20313;-57
2024/04/14 01:57:20;;;;;;;2.83;1.38;;;15.40;99.90;;;;;;4479834;26;20282;-57
2024/04/14 01:59:21;;;;;;;1.13;1.02;;;15.40;99.90;;;;;;4479603;26;20344;-57
2024/04/14 02:01:22;;;;;;;2.03;1.27;;;15.40;99.90;;;;;;4487609;26;20745;-57
2024/04/14 02:03:23;;;;;;;1.67;1.10;;;15.40;99.90;;;;;;4478059;26;20241;-57
2024/04/14 02:05:23;;;;;;;1.13;0.93;;;15.30;99.90;;;;;;4478822;26;20766;-57
2024/04/14 02:07:24;;;;;;;1.20;1.10;;;15.30;99.90;;;;;;4479084;26;20231;-57
2024/04/14 02:09:24;;;;;;;1.10;0.98;;;15.30;99.90;;;;;;4479412;26;20645;-57
2024/04/14 02:11:25;;;;;;;1.63;1.10;;;15.30;99.90;;;;;;4479190;26;20389;-57
2024/04/14 02:13:25;;;;;;;1.38;1.00;;;15.20;99.90;;;;;;4479181;26;20239;-56
2024/04/14 02:15:26;;;;;;;2.58;1.30;;;15.20;99.90;;;;;;4479398;26;20294;-57
2024/04/14 02:17:27;;;;;;;1.80;1.30;;;15.20;99.90;;;;;;4477710;26;20274;-57
2024/04/14 02:19:27;;;;;;;2.22;1.10;;;15.20;99.90;;;;;;4497519;26;20231;-57
2024/04/14 02:21:28;;;;;;;1.77;1.20;;;15.10;99.90;;;;;;4479181;26;20766;-57
2024/04/14 02:23:29;;;;;;;1.92;1.20;;;15.10;99.90;;;;;;4442499;26;20246;-57
2024/04/14 02:25:30;;;;;;;1.60;1.20;;;15.10;99.90;;;;;;4476775;26;20718;-57
2024/04/14 02:27:30;;;;;;;1.30;1.20;;;15.00;99.90;;;;;;4508553;26;20317;-57
2024/04/14 02:29:31;;;;;;;1.80;1.30;;;15.00;99.90;;;;;;4491089;26;20235;-57
2024/04/14 02:31:31;;;;;;;1.73;1.10;;;15.00;99.90;;;;;;4479194;26;20227;-57
2024/04/14 02:33:33;;;;;;;4.10;1.20;;;15.00;99.90;;;;;;4483863;26;21059;-57
2024/04/14 02:35:33;;;;;;;2.72;1.25;;;15.00;99.90;;;;;;4506398;26;20227;-57
2024/04/14 02:37:34;;;;;;;1.23;1.05;;;14.90;99.90;;;;;;4508890;26;20303;-57
2024/04/14 02:39:34;;;;;;;1.85;1.45;;;14.90;99.90;;;;;;4508989;26;20233;-57
2024/04/14 02:41:37;;;;;;;1.38;1.10;;;14.90;99.90;;;;;;4498750;26;20273;-57
2024/04/14 02:43:39;;;;;;;1.58;1.20;;;14.90;99.90;;;;;;4508650;26;20825;-57
2024/04/14 02:45:40;;;;;;;1.25;1.10;;;14.90;99.90;;;;;;4507707;26;20277;-57
2024/04/14 02:47:40;;;;;;;2.33;1.20;;;14.90;99.90;;;;;;4487379;26;20694;-57
2024/04/14 02:49:41;;;;;;;2.17;1.20;;;14.90;99.90;;;;;;4478895;26;20281;-56
2024/04/14 02:51:43;;;;;;;2.15;1.30;;;14.80;99.90;;;;;;4478813;26;20291;-57
2024/04/14 02:53:44;;;;;;;1.85;1.20;;;14.80;99.90;;;;;;4483604;26;20859;-57
2024/04/14 02:55:45;;;;;;;2.13;1.20;;;14.80;99.90;;;;;;4487083;26;20315;-57
2024/04/14 02:57:46;;;;;;;1.83;1.30;;;14.80;99.90;;;;;;4497444;26;20881;-57
2024/04/14 02:59:46;;;;;;;2.03;1.38;;;14.70;99.90;;;;;;4508842;26;20227;-57
2024/04/14 03:01:47;;;;;;;2.05;1.40;;;14.70;99.90;;;;;;4476672;26;20857;-57
2024/04/14 03:03:48;;;;;;;2.75;1.40;;;14.70;99.90;;;;;;4483360;26;20258;-57
2024/04/14 03:06:00;;;;;;;1.67;1.55;;;14.70;99.90;;;;;;4503196;26;20780;-57
2024/04/14 03:08:02;;;;;;;2.97;1.30;;;14.60;99.90;;;;;;4508422;26;20341;-57
2024/04/14 03:10:03;;;;;;;2.17;1.20;;;14.60;99.90;;;;;;4477081;26;20235;-58
2024/04/14 03:12:04;;;;;;;2.00;1.30;;;14.60;99.90;;;;;;4501117;26;20334;-57
2024/04/14 03:14:05;;;;;;;2.45;1.42;;;14.60;99.90;;;;;;4478934;26;20227;-56
2024/04/14 03:16:06;;;;;;;2.03;1.35;;;14.50;99.90;;;;;;4488905;26;20327;-57
2024/04/14 03:18:06;;;;;;;3.10;1.35;;;14.60;99.90;;;;;;4460795;26;20233;-57
2024/04/14 03:20:07;;;;;;;2.05;1.33;;;14.50;99.90;;;;;;4501363;26;20268;-56
2024/04/14 03:22:08;;;;;;;2.83;1.40;;;14.50;99.90;;;;;;4507887;26;20330;-56
2024/04/14 03:24:08;;;;;;;2.80;1.48;;;14.50;1.00;;;;;;4466403;26;20241;-56
2024/04/14 03:26:09;;;;;;;4.07;1.50;;;14.50;1.00;;;;;;4493855;26;20314;-56
2024/04/14 03:28:09;;;;;;;3.08;1.45;;;14.50;1.00;;;;;;4507962;26;20269;-56
2024/04/14 03:30:10;;;;;;;2.00;1.35;;;14.50;1.00;;;;;;4507950;26;20226;-57
2024/04/14 03:32:12;;;;;;;1.88;1.33;;;14.50;1.00;;;;;;4470984;26;20274;-57
2024/04/14 03:34:12;;;;;;;2.35;1.40;;;14.50;1.00;;;;;;4477735;26;20284;-57
2024/04/14 03:36:14;;;;;;;3.33;1.60;;;14.50;1.00;;;;;;4497606;26;20234;-56
2024/04/14 03:38:14;;;;;;;2.05;1.60;;;14.50;1.00;;;;;;4506855;26;20827;-58
2024/04/14 03:40:15;;;;;;;2.90;1.70;;;14.50;1.00;;;;;;4478980;26;20317;-56
2024/04/14 03:42:15;;;;;;;1.83;1.40;;;14.50;1.00;;;;;;4491343;26;20276;-56
2024/04/14 03:44:16;;;;;;;3.28;1.55;;;14.40;1.00;;;;;;4475603;26;21110;-56
2024/04/14 03:46:16;;;;;;;2.40;1.57;;;14.40;1.00;;;;;;4507494;26;20310;-56
2024/04/14 03:48:17;;;;;;;2.10;1.30;;;14.40;1.00;;;;;;4476353;26;20305;-56
2024/04/14 03:50:18;;;;;;;3.67;1.60;;;14.40;1.00;;;;;;4507878;26;20238;-56
2024/04/14 03:52:19;;;;;;;2.60;1.58;;;14.40;1.00;;;;;;4476372;26;20569;-57
2024/04/14 03:54:20;;;;;;;2.90;1.67;;;14.30;1.00;;;;;;4501375;26;20277;-57
2024/04/14 03:56:20;;;;;;;4.20;1.70;;;14.30;1.00;;;;;;4484255;26;20230;-56
2024/04/14 03:58:21;;;;;;;2.00;1.40;;;14.30;1.00;;;;;;4476335;26;20266;-56
2024/04/14 04:00:22;;;;;;;2.78;1.58;;;14.30;1.00;;;;;;4478121;26;20282;-56
2024/04/14 04:02:22;;;;;;;4.03;1.70;;;14.30;1.00;;;;;;4502033;26;20289;-56
2024/04/14 04:04:23;;;;;;;2.67;1.40;;;14.30;1.00;;;;;;4501598;26;20289;-56
2024/04/14 04:06:23;;;;;;;2.57;1.60;;;14.30;1.00;;;;;;4477642;26;20344;-56
2024/04/14 04:08:24;;;;;;;2.80;1.60;;;14.30;1.00;;;;;;4477877;26;20341;-56
2024/04/14 04:10:24;;;;;;;1.80;1.48;;;14.30;1.00;;;;;;4477951;26;20305;-57
2024/04/14 04:12:25;;;;;;;4.20;1.75;;;14.30;1.00;;;;;;4477456;26;20290;-56
2024/04/14 04:14:26;;;;;;;3.60;1.77;;;14.30;1.00;;;;;;4479610;26;20266;-56
2024/04/14 04:16:26;;;;;;;2.88;1.60;;;14.30;1.00;;;;;;4497154;26;20226;-56
2024/04/14 04:18:27;;;;;;;2.00;1.73;;;14.20;1.00;;;;;;4510529;26;20235;-56
2024/04/14 04:20:28;;;;;;;1.87;1.50;;;14.30;1.00;;;;;;4510485;26;20238;-56
2024/04/14 04:22:28;;;;;;;2.28;1.60;;;14.20;1.00;;;;;;4510768;26;20226;-57
2024/04/14 04:24:29;;;;;;;2.53;1.73;;;14.20;1.00;;;;;;4509687;26;20285;-56
2024/04/14 04:26:29;;;;;;;4.05;1.58;;;14.20;1.00;;;;;;4507453;26;20568;-57
2024/04/14 04:28:30;;;;;;;3.05;1.77;;;14.20;1.00;;;;;;4473159;26;20231;-56
2024/04/14 04:30:31;;;;;;;2.70;1.77;;;14.20;1.00;;;;;;4458207;26;20236;-56
2024/04/14 04:32:32;;;;;;;2.50;1.90;;;14.20;1.00;;;;;;4495269;26;20299;-56
2024/04/14 04:34:32;;;;;;;2.53;1.60;;;14.20;1.00;;;;;;4479726;26;20281;-56
2024/04/14 04:36:33;;;;;;;3.72;1.77;;;14.20;1.00;;;;;;4502851;26;20281;-56
2024/04/14 04:38:33;;;;;;;3.28;1.83;;;14.20;1.00;;;;;;4485720;26;20655;-56
2024/04/14 04:40:34;;;;;;;3.05;1.70;;;14.10;1.00;;;;;;4510372;26;20623;-56
2024/04/14 04:42:34;;;;;;;2.95;1.80;;;14.20;1.00;;;;;;4500312;26;20230;-56
2024/04/14 04:44:35;;;;;;;3.33;1.80;;;14.10;1.00;;;;;;4487123;26;20278;-56
2024/04/14 04:46:36;;;;;;;4.07;1.90;;;14.10;1.00;;;;;;4480303;26;20725;-56
2024/04/14 04:48:36;;;;;;;3.53;1.67;;;14.10;1.00;;;;;;4490311;26;20222;-56
2024/04/14 04:50:37;;;;;;;2.10;1.77;;;14.10;1.00;;;;;;4463687;26;20721;-56
2024/04/14 04:52:37;;;;;;;2.50;1.70;;;14.10;1.00;;;;;;4501351;26;20276;-56
2024/04/14 04:54:39;;;;;;;2.58;1.52;;;14.10;1.00;;;;;;4508779;26;20230;-56
2024/04/14 04:56:39;;;;;;;5.68;2.00;;;14.10;1.00;;;;;;4509920;26;20407;-56
2024/04/14 04:58:40;;;;;;;3.55;1.75;;;14.10;1.00;;;;;;4495364;26;20303;-57
2024/04/14 05:00:50;;;;;;;4.28;2.20;;;14.00;1.00;;;;;;4457633;26;20291;-57
2024/04/14 05:02:50;;;;;;;4.95;2.20;;;14.00;1.00;;;;;;4504155;26;20280;-57
2024/04/14 05:04:54;;;;;;;4.93;2.05;;;14.00;1.00;;;;;;4458977;26;20720;-57
2024/04/14 05:06:54;;;;;;;3.30;2.00;;;14.00;1.00;;;;;;4496905;26;20273;-56
2024/04/14 05:08:55;;;;;;;3.03;1.90;;;14.00;1.00;;;;;;4456305;26;20836;-56
2024/04/14 05:10:56;;;;;;;3.03;2.05;;;14.00;1.00;;;;;;4508076;26;20693;-56
2024/04/14 05:12:57;;;;;;;5.28;2.10;;;14.00;1.00;;;;;;4509737;26;20272;-57
2024/04/14 05:14:58;;;;;;;3.77;2.20;;;13.90;1.00;;;;;;4508891;26;20281;-56
2024/04/14 05:16:58;;;;;;;2.92;1.95;;;13.90;1.00;;;;;;4509720;26;20720;-56
2024/04/14 05:18:59;;;;;;;3.67;2.30;;;13.90;1.30;;;;;;4482132;26;20792;-56
2024/04/14 05:21:00;;;;;;;4.28;2.10;;;13.90;9.30;;;;;;4480089;26;20231;-57
2024/04/14 05:23:01;;;;;;;2.87;2.00;;;13.90;11.50;;;;;;4480209;26;20492;-56
2024/04/14 05:25:01;;;;;;;3.60;2.00;;;13.90;27.50;;;;;;4478171;26;20282;-56
2024/04/14 05:27:03;;;;;;;6.13;2.50;;;13.90;52.20;;;;;;4506994;26;20762;-56
2024/04/14 05:29:04;;;;;;;2.75;1.67;;;13.90;91.10;;;;;;4478311;26;20305;-56
2024/04/14 05:31:04;;;;;;;3.65;2.15;;;13.90;98.10;;;;;;4494254;26;20227;-56
2024/04/14 05:33:05;;;;;;;3.17;2.08;;;13.90;99.90;;;;;;4500937;26;20242;-56
2024/04/14 05:35:06;;;;;;;3.88;2.20;;;13.90;99.90;;;;;;4506594;26;20370;-57
2024/04/14 05:37:07;;;;;;;3.27;2.10;;;13.90;99.90;;;;;;4509512;26;20338;-56
2024/04/14 05:39:08;;;;;;;3.45;2.08;;;13.90;99.90;;;;;;4495571;26;20281;-56
2024/04/14 05:41:08;;;;;;;4.10;2.40;;;13.90;99.90;;;;;;4494605;26;20317;-56
2024/04/14 05:43:09;;;;;;;4.00;2.20;;;13.90;99.90;;;;;;4505719;26;20285;-56
2024/04/14 05:45:10;;;;;;;4.13;2.20;;;13.90;99.90;;;;;;4508688;26;20302;-56
2024/04/14 05:47:10;;;;;;;3.80;2.58;;;13.90;99.90;;;;;;4509605;26;20829;-56
2024/04/14 05:49:11;;;;;;;5.15;2.67;;;13.90;99.90;;;;;;4478096;26;20284;-56
2024/04/14 05:51:11;;;;;;;4.20;2.40;;;13.90;99.90;;;;;;4505301;26;20548;-57
2024/04/14 05:53:12;;;;;;;4.05;2.72;;;13.90;99.90;;;;;;4502197;26;20239;-57
2024/04/14 05:55:13;;;;;;;5.20;2.67;;;13.90;99.90;;;;;;4447722;26;20232;-56
2024/04/14 05:57:14;;;;;;;5.07;2.87;;;13.90;99.90;;;;;;4467503;26;20705;-57
2024/04/14 05:59:14;;;;;;;3.67;2.65;;;13.90;99.90;;;;;;4503620;26;20234;-57
2024/04/14 06:01:15;;;;;;;3.95;2.67;;;13.90;99.90;;;;;;4486249;26;20226;-56
2024/04/14 06:03:16;;;;;;;4.43;2.77;;;13.90;99.90;;;;;;4496746;26;20242;-57
2024/04/14 06:05:16;;;;;;;6.10;3.20;;;13.90;1.00;;;;;;4478845;26;20691;-57
2024/04/14 06:07:17;;;;;;;4.90;3.17;;;13.90;1.00;;;;;;4479664;26;20705;-56
2024/04/14 06:09:17;;;;;;;4.03;2.80;;;13.90;1.00;;;;;;4479877;26;20278;-56
2024/04/14 06:11:18;;;;;;;6.00;3.10;;;13.90;1.00;;;;;;4479392;26;20803;-57
2024/04/14 06:13:19;;;;;;;3.78;2.97;;;14.00;1.00;;;;;;4479404;26;20335;-57
2024/04/14 06:15:19;;;;;;;5.07;3.30;;;14.00;1.00;;;;;;4478484;26;20239;-57
2024/04/14 06:17:20;;;;;;;4.95;3.38;;;14.00;1.00;;;;;;4479146;26;20243;-56
2024/04/14 06:19:21;;;;;;;6.28;3.20;;;14.00;1.00;;;;;;4490829;26;20306;-56
2024/04/14 06:21:21;;;;;;;5.65;3.25;;;14.00;1.00;;;;;;4491673;26;20627;-57
2024/04/14 06:23:22;;;;;;;4.97;3.10;;;14.00;1.00;;;;;;4479441;26;20273;-56
2024/04/14 06:25:22;;;;;;;6.05;3.35;;;14.00;1.00;;;;;;4507323;26;20289;-56
2024/04/14 06:27:23;;;;;;;6.55;3.25;;;14.00;1.00;;;;;;4508961;26;20229;-56
2024/04/14 06:29:23;;;;;;;6.43;3.40;;;14.00;1.00;;;;;;4477862;26;20324;-56
2024/04/14 06:31:24;;;;;;;7.37;3.70;;;14.10;1.00;;;;;;4448518;26;20377;-57
2024/04/14 06:33:24;;;;;;;6.47;3.58;;;14.10;1.00;;;;;;4482560;26;20564;-56
2024/04/14 06:35:25;;;;;;;6.73;3.33;;;14.10;1.00;;;;;;4506119;26;20230;-56
2024/04/14 06:37:25;;;;;;;5.07;3.23;;;14.10;1.00;;;;;;4476809;26;20332;-56
2024/04/14 06:39:26;;;;;;;5.65;3.42;;;14.10;1.00;;;;;;4490253;26;20408;-57
2024/04/14 06:41:27;;;;;;;5.03;3.20;;;14.10;72.90;;;;;;4479007;26;20227;-57
2024/04/14 06:43:27;;;;;;;6.43;3.50;;;14.10;99.90;;;;;;4508734;26;20783;-56
2024/04/14 06:45:28;;;;;;;7.43;3.50;;;14.10;99.90;;;;;;4464794;26;20267;-57
2024/04/14 06:47:28;;;;;;;6.70;3.85;;;14.10;99.90;;;;;;4479041;26;20235;-58
2024/04/14 06:49:29;;;;;;;7.03;3.67;;;14.10;99.90;;;;;;4503123;26;20809;-57
2024/04/14 06:51:29;;;;;;;7.38;4.22;;;14.20;99.90;;;;;;4484425;26;20280;-57
2024/04/14 06:53:30;;;;;;;9.82;4.15;;;14.20;99.90;;;;;;4508599;26;20261;-57
2024/04/14 06:55:30;;;;;;;6.63;4.10;;;14.20;99.90;;;;;;4507967;26;20238;-57
2024/04/14 06:57:31;;;;;;;5.82;4.00;;;14.30;99.90;;;;;;4508459;26;20625;-57
2024/04/14 06:59:32;;;;;;;8.98;3.85;;;14.30;99.90;;;;;;4468511;26;20239;-57
2024/04/14 07:01:32;;;;;;;6.35;4.03;;;14.30;1.00;;;;;;4493918;26;20231;-57
2024/04/14 07:03:33;;;;;;;6.37;3.87;;;14.30;1.00;;;;;;4508102;26;20277;-57
2024/04/14 07:05:33;;;;;;;8.03;3.87;;;14.30;1.00;;;;;;4508267;26;20230;-57
2024/04/14 07:07:35;;;;;;;6.43;3.90;;;14.40;1.00;;;;;;4508142;26;20238;-57
2024/04/14 07:09:35;;;;;;;7.22;4.22;;;14.40;1.00;;;;;;4508726;26;20587;-57
2024/04/14 07:11:36;;;;;;;7.27;4.23;;;14.40;1.00;;;;;;4508712;26;20277;-57
2024/04/14 07:13:38;;;;;;;7.30;4.30;;;14.50;1.00;;;;;;4507907;26;20285;-57
2024/04/14 07:15:39;;;;;;;9.25;4.13;;;14.40;1.00;;;;;;4505157;26;20230;-56
2024/04/14 07:17:39;;;;;;;7.32;4.20;;;14.50;1.00;;;;;;4478532;26;20282;-57
2024/04/14 07:19:40;;;;;;;8.13;4.22;;;14.50;1.00;;;;;;4478569;26;20835;-56
2024/04/14 07:21:41;;;;;;;8.07;4.07;;;14.60;1.00;;;;;;4478468;26;20556;-56
2024/04/14 07:23:41;;;;;;;7.82;4.53;;;14.60;1.00;;;;;;4443451;26;20275;-60
2024/04/14 07:25:42;;;;;;;7.33;4.00;;;14.60;1.00;;;;;;4486545;26;20246;-57
2024/04/14 07:27:44;;;;;;;8.50;4.18;;;14.60;1.00;;;;;;4507709;26;20231;-57
2024/04/14 07:29:44;;;;;;;6.63;3.90;;;14.60;1.00;;;;;;4508353;26;20264;-57
2024/04/14 07:31:45;;;;;;;7.13;4.18;;;14.60;1.00;;;;;;4484080;26;20247;-57
2024/04/14 07:33:45;;;;;;;6.07;4.10;;;14.50;1.00;;;;;;4475888;26;20227;-58
2024/04/14 07:35:46;;;;;;;7.68;4.18;;;14.60;1.00;;;;;;4490911;26;21160;-57
2024/04/14 07:37:47;;;;;;;6.57;3.97;;;14.50;1.00;;;;;;4476449;26;20810;-57
2024/04/14 07:39:47;;;;;;;6.88;4.28;;;14.60;1.00;;;;;;4502253;26;20281;-57
2024/04/14 07:41:48;;;;;;;7.18;4.30;;;14.50;1.00;;;;;;4467137;26;20223;-57
2024/04/14 07:43:49;;;;;;;7.03;4.25;;;14.50;34.30;;;;;;4475478;26;20246;-57
2024/04/14 07:45:49;;;;;;;7.35;4.30;;;14.50;22.40;;;;;;4477975;26;20236;-57
2024/04/14 07:47:50;;;;;;;9.30;4.97;;;14.50;52.40;;;;;;4501501;26;20335;-56
2024/04/14 07:49:50;;;;;;;6.53;4.35;;;14.60;83.00;;;;;;4505742;26;20239;-57
2024/04/14 07:51:51;;;;;;;8.23;4.22;;;14.60;99.90;;;;;;4481416;26;20605;-57
2024/04/14 07:53:52;;;;;;;6.82;4.22;;;14.70;99.90;;;;;;4465579;26;20236;-58
2024/04/14 07:55:54;;;;;;;9.48;4.82;;;14.80;1.00;;;;;;4481189;26;20238;-57
2024/04/14 07:57:54;;;;;;;6.00;4.28;;;14.80;1.00;;;;;;4505097;26;20230;-58
2024/04/14 07:59:56;;;;;;;7.90;3.72;;;14.80;1.00;;;;;;4481031;26;20235;-57
2024/04/14 08:01:56;;;;;;;9.35;4.40;;;14.90;1.00;;;;;;4496650;26;20234;-57
2024/04/14 08:03:57;;;;;;;10.10;4.45;;;14.80;1.00;;;;;;4487903;26;20231;-57
2024/04/14 08:05:57;;;;;;;11.27;4.70;;;14.90;1.00;;;;;;4508430;26;20803;-58
2024/04/14 08:07:58;;;;;;;5.87;3.90;;;14.90;1.00;;;;;;4489092;26;20286;-57
2024/04/14 08:09:58;;;;;;;8.93;4.70;;;15.00;1.00;;;;;;4480973;26;20337;-57
2024/04/14 08:11:59;;;;;;;8.80;4.57;;;15.00;1.00;;;;;;4481262;26;20228;-57
2024/04/14 08:14:00;;;;;;;10.15;4.88;;;15.00;1.00;;;;;;4507589;26;20226;-56
2024/04/14 08:16:00;;;;;;;8.10;4.38;;;15.00;1.00;;;;;;4470158;26;20706;-58
2024/04/14 08:18:02;;;;;;;7.57;4.05;;;15.10;1.00;;;;;;4480069;26;20701;-57
2024/04/14 08:20:03;;;;;;;7.47;4.20;;;15.10;1.00;;;;;;4480741;26;20307;-57
2024/04/14 08:22:03;;;;;;;7.45;4.53;;;15.20;99.90;;;;;;4480440;26;20713;-57
2024/04/14 08:24:06;;;;;;;9.48;4.78;;;15.30;99.90;;;;;;4480228;26;20231;-57
2024/04/14 08:26:07;;;;;;;8.93;4.72;;;15.30;99.90;;;;;;4480786;26;20265;-57
2024/04/14 08:28:07;;;;;;;6.03;4.00;;;15.30;99.90;;;;;;4500528;26;20226;-58
2024/04/14 08:30:10;;;;;;;9.57;4.75;;;15.30;99.90;;;;;;4486622;26;20294;-57
2024/04/14 08:32:10;;;;;;;7.05;4.60;;;15.30;99.90;;;;;;4509674;26;20226;-57
2024/04/14 08:34:11;;;;;;;8.25;3.75;;;15.30;99.90;;;;;;4510155;26;20300;-57
2024/04/14 08:36:11;;;;;;;7.47;4.13;;;15.30;99.90;;;;;;4508446;26;20226;-58
2024/04/14 08:38:12;;;;;;;6.63;4.03;;;15.40;99.90;;;;;;4509570;26;20230;-57
2024/04/14 08:40:13;;;;;;;5.75;3.55;;;15.50;14.60;;;;;;4480775;26;20227;-57
2024/04/14 08:42:14;;;;;;;10.00;4.20;;;15.60;1.00;;;;;;4492496;26;20226;-58
2024/04/14 08:44:15;;;;;;;6.80;4.00;;;15.70;1.00;;;;;;4509686;26;20824;-57
2024/04/14 08:46:17;;;;;;;7.15;4.18;;;15.70;1.00;;;;;;4509629;26;20226;-57
2024/04/14 08:48:18;;;;;;;7.18;4.07;;;15.70;1.00;;;;;;4419885;26;20234;-58
2024/04/14 08:50:23;;;;;;;7.18;3.90;;;15.80;1.00;;;;;;4480261;26;20328;-57
2024/04/14 08:52:26;;;;;;;6.75;4.00;;;15.80;1.00;;;;;;4484629;26;20223;-57
2024/04/14 08:54:26;;;;;;;7.05;3.55;;;15.80;1.00;;;;;;4505687;26;20314;-56
2024/04/14 08:56:30;;;;;;;7.43;3.30;;;15.70;1.00;;;;;;4507119;26;20230;-56
2024/04/14 08:58:32;;;;;;;5.93;3.38;;;15.70;1.00;;;;;;4509945;26;20367;-56
2024/04/14 09:00:32;;;;;;;7.47;3.40;;;15.60;99.90;;;;;;4499850;26;20262;-56
2024/04/14 09:02:33;;;;;;;6.53;2.90;;;15.60;99.90;;;;;;4503482;26;20242;-56
2024/04/14 09:04:33;;;;;;;4.97;3.03;;;15.60;99.90;;;;;;4479657;26;20227;-59
2024/04/14 09:06:34;;;;;;;5.25;2.80;;;15.60;99.90;;;;;;4479724;26;20228;-59
2024/04/14 09:08:35;;;;;;;5.78;3.22;;;15.70;99.90;;;;;;4499344;26;20312;-56
2024/04/14 09:10:36;;;;;;;4.72;2.90;;;15.70;99.90;;;;;;4477184;26;20274;-56
2024/04/14 09:12:37;;;;;;;5.60;3.20;;;15.70;99.90;;;;;;4486818;26;20569;-56
2024/04/14 09:14:37;;;;;;;6.05;3.40;;;15.70;99.90;;;;;;4477990;26;20251;-56
2024/04/14 09:16:38;;;;;;;5.57;3.40;;;15.80;99.90;;;;;;4509048;26;20230;-56
2024/04/14 09:18:38;;;;;;;9.40;3.33;;;15.90;99.90;;;;;;4509648;26;20258;-56
2024/04/14 09:20:39;;;;;;;9.35;3.50;;;15.90;99.90;;;;;;4503317;26;20668;-56
2024/04/14 09:22:39;;;;;;;7.05;3.63;;;15.90;99.90;;;;;;4492012;26;20238;-56
2024/04/14 09:24:40;;;;;;;5.55;2.97;;;15.90;99.90;;;;;;4491099;26;20295;-56
2024/04/14 09:26:43;;;;;;;4.55;2.72;;;15.90;99.90;;;;;;4479067;26;20258;-56
2024/04/14 09:28:43;;;;;;;7.53;3.30;;;15.90;99.90;;;;;;4508574;26;20327;-56
2024/04/14 09:30:44;;;;;;;7.50;3.65;;;16.00;99.90;;;;;;4496945;26;20780;-56
2024/04/14 09:32:46;;;;;;;5.93;3.60;;;15.90;99.90;;;;;;4497650;26;20226;-56
2024/04/14 09:34:47;;;;;;;5.20;3.33;;;15.90;99.90;;;;;;4476758;26;20954;-56
2024/04/14 09:36:48;;;;;;;7.38;3.30;;;15.90;99.90;;;;;;4502196;26;20226;-56
2024/04/14 09:38:51;;;;;;;4.38;3.03;;;16.00;99.90;;;;;;4457896;26;20250;-56
2024/04/14 09:40:52;;;;;;;7.32;3.90;;;15.90;99.90;;;;;;4479237;26;20614;-55
2024/04/14 09:42:57;;;;;;;7.07;3.40;;;15.90;99.90;;;;;;4498813;26;20223;-55
2024/04/14 09:45:00;;;;;;;5.75;3.28;;;16.00;99.90;;;;;;4475160;26;20252;-57
2024/04/14 09:47:02;;;;;;;6.68;3.25;;;16.00;99.90;;;;;;4486992;26;20230;-58
2024/04/14 09:49:06;;;;;;;5.35;3.00;;;16.00;99.90;;;;;;4506679;26;20234;-56
2024/04/14 09:51:08;;;;;;;5.55;2.95;;;16.00;99.90;;;;;;4507518;26;20238;-56
2024/04/14 09:53:10;;;;;;;5.35;2.70;;;16.00;99.90;;;;;;4483098;26;20262;-55
2024/04/14 09:55:11;;;;;;;4.72;2.92;;;16.00;99.90;;;;;;4494379;26;20718;-57
2024/04/14 09:57:12;;;;;;;5.38;3.00;;;16.20;99.90;;;;;;4478864;26;20285;-56
2024/04/14 09:59:12;;;;;;;4.68;3.00;;;16.20;99.90;;;;;;4479774;26;20713;-59
2024/04/14 10:01:20;;;;;;;5.97;3.05;;;16.30;99.90;;;;;;4485056;26;20234;-57
2024/04/14 10:03:23;;;;;;;3.80;2.60;;;16.30;99.90;;;;;;4508733;26;20245;-56
2024/04/14 10:05:25;;;;;;;6.57;2.85;;;16.20;99.90;;;;;;4509285;26;20230;-56
2024/04/14 10:07:26;;;;;;;3.58;2.50;;;16.20;99.90;;;;;;4482053;26;21025;-55
2024/04/14 10:09:27;;;;;;;4.95;2.95;;;16.30;99.90;;;;;;4487949;26;20273;-56
2024/04/14 10:11:30;;;;;;;5.43;3.08;;;16.40;99.90;;;;;;4508140;26;20275;-57
2024/04/14 10:13:50;;;;;;;6.22;3.38;;;16.40;99.90;;;;;;4508914;26;20222;-56
2024/04/14 10:15:58;;;;;;;4.78;2.67;;;16.40;99.90;;;;;;4508929;26;20708;-57
2024/04/14 10:18:08;;;;;;;4.70;3.15;;;16.50;99.90;;;;;;4508766;26;20326;-56
2024/04/14 10:20:17;;;;;;;5.28;3.45;;;16.50;99.90;;;;;;4452727;26;20258;-56
2024/04/14 10:22:21;;;;;;;5.05;2.65;;;16.60;99.90;;;;;;4476566;26;20275;-56
2024/04/14 10:24:23;;;;;;;7.18;3.15;;;16.60;99.90;;;;;;4489648;26;20273;-56
2024/04/14 10:26:24;;;;;;;6.03;3.03;;;16.70;99.90;;;;;;4507323;26;20334;-58
2024/04/14 10:28:25;;;;;;;5.32;3.00;;;16.70;99.90;;;;;;4507285;26;20235;-56
2024/04/14 10:30:25;;;;;;;7.45;3.10;;;16.60;99.90;;;;;;4483991;26;20573;-56
2024/04/14 10:32:26;;;;;;;4.90;2.97;;;16.60;99.90;;;;;;4509241;26;20719;-58